sensor_id;sensor_type;location;lat;lon;timestamp;P1;durP1;ratioP1;P2;durP2;ratioP2
51664;SDS011;37751;52.408;12.536;2022-10-31T00:01:19;45.10;;;23.23;;
51664;SDS011;37751;52.408;12.536;2022-10-31T00:03:58;44.83;;;23.35;;
51664;SDS011;37751;52.408;12.536;2022-10-31T00:06:25;32.08;;;17.70;;
51664;SDS011;37751;52.408;12.536;2022-10-31T00:08:53;49.80;;;24.63;;
51664;SDS011;37751;52.408;12.536;2022-10-31T00:11:22;51.65;;;24.55;;
51664;SDS011;37751;52.408;12.536;2022-10-31T00:13:50;40.20;;;19.58;;
51664;SDS011;37751;52.408;12.536;2022-10-31T00:16:18;41.25;;;20.50;;
51664;SDS011;37751;52.408;12.536;2022-10-31T00:18:48;39.05;;;19.90;;
51664;SDS011;37751;52.408;12.536;2022-10-31T00:21:19;44.38;;;21.92;;
51664;SDS011;37751;52.408;12.536;2022-10-31T00:23:46;31.30;;;19.20;;
51664;SDS011;37751;52.408;12.536;2022-10-31T00:26:13;39.40;;;22.48;;
51664;SDS011;37751;52.408;12.536;2022-10-31T00:28:40;37.58;;;20.42;;
51664;SDS011;37751;52.408;12.536;2022-10-31T00:31:08;37.45;;;20.80;;
51664;SDS011;37751;52.408;12.536;2022-10-31T00:33:36;38.58;;;19.17;;
51664;SDS011;37751;52.408;12.536;2022-10-31T00:36:05;41.65;;;20.27;;
51664;SDS011;37751;52.408;12.536;2022-10-31T00:38:35;41.45;;;20.88;;
51664;SDS011;37751;52.408;12.536;2022-10-31T00:41:02;43.03;;;21.73;;
51664;SDS011;37751;52.408;12.536;2022-10-31T00:43:29;50.67;;;22.80;;
51664;SDS011;37751;52.408;12.536;2022-10-31T00:45:55;44.35;;;21.00;;
51664;SDS011;37751;52.408;12.536;2022-10-31T00:48:22;48.47;;;23.50;;
51664;SDS011;37751;52.408;12.536;2022-10-31T00:50:48;56.53;;;26.00;;
51664;SDS011;37751;52.408;12.536;2022-10-31T00:53:15;46.50;;;21.70;;
51664;SDS011;37751;52.408;12.536;2022-10-31T00:55:42;32.88;;;16.92;;
51664;SDS011;37751;52.408;12.536;2022-10-31T00:58:08;28.65;;;15.82;;
51664;SDS011;37751;52.408;12.536;2022-10-31T01:00:36;34.63;;;18.52;;
51664;SDS011;37751;52.408;12.536;2022-10-31T01:03:02;41.22;;;19.13;;
51664;SDS011;37751;52.408;12.536;2022-10-31T01:05:29;43.58;;;18.65;;
51664;SDS011;37751;52.408;12.536;2022-10-31T01:07:56;34.75;;;15.88;;
51664;SDS011;37751;52.408;12.536;2022-10-31T01:10:23;30.70;;;15.20;;
51664;SDS011;37751;52.408;12.536;2022-10-31T01:12:49;37.08;;;15.38;;
51664;SDS011;37751;52.408;12.536;2022-10-31T01:15:21;44.70;;;16.05;;
51664;SDS011;37751;52.408;12.536;2022-10-31T01:17:49;29.17;;;15.93;;
51664;SDS011;37751;52.408;12.536;2022-10-31T01:20:16;32.22;;;16.48;;
51664;SDS011;37751;52.408;12.536;2022-10-31T01:22:45;41.13;;;16.83;;
51664;SDS011;37751;52.408;12.536;2022-10-31T01:25:11;32.97;;;16.52;;
51664;SDS011;37751;52.408;12.536;2022-10-31T01:27:38;35.92;;;16.20;;
51664;SDS011;37751;52.408;12.536;2022-10-31T01:30:04;34.92;;;15.38;;
51664;SDS011;37751;52.408;12.536;2022-10-31T01:32:32;31.95;;;14.38;;
51664;SDS011;37751;52.408;12.536;2022-10-31T01:34:58;28.65;;;15.43;;
51664;SDS011;37751;52.408;12.536;2022-10-31T01:37:25;50.85;;;20.77;;
51664;SDS011;37751;52.408;12.536;2022-10-31T01:39:51;37.58;;;18.67;;
51664;SDS011;37751;52.408;12.536;2022-10-31T01:42:19;41.38;;;18.15;;
51664;SDS011;37751;52.408;12.536;2022-10-31T01:44:49;31.73;;;15.30;;
51664;SDS011;37751;52.408;12.536;2022-10-31T01:47:41;37.22;;;14.68;;
51664;SDS011;37751;52.408;12.536;2022-10-31T01:50:31;27.27;;;13.38;;
51664;SDS011;37751;52.408;12.536;2022-10-31T01:53:02;30.42;;;13.73;;
51664;SDS011;37751;52.408;12.536;2022-10-31T01:55:33;32.08;;;15.10;;
51664;SDS011;37751;52.408;12.536;2022-10-31T01:58:07;32.53;;;15.25;;
51664;SDS011;37751;52.408;12.536;2022-10-31T02:01:05;30.70;;;14.77;;
51664;SDS011;37751;52.408;12.536;2022-10-31T02:03:33;38.70;;;14.25;;
51664;SDS011;37751;52.408;12.536;2022-10-31T02:06:00;26.75;;;12.48;;
51664;SDS011;37751;52.408;12.536;2022-10-31T02:08:33;23.27;;;13.40;;
51664;SDS011;37751;52.408;12.536;2022-10-31T02:11:02;34.33;;;11.90;;
51664;SDS011;37751;52.408;12.536;2022-10-31T02:13:29;27.52;;;12.55;;
51664;SDS011;37751;52.408;12.536;2022-10-31T02:15:57;26.10;;;11.02;;
51664;SDS011;37751;52.408;12.536;2022-10-31T02:18:25;25.02;;;10.75;;
51664;SDS011;37751;52.408;12.536;2022-10-31T02:30:06;19.23;;;10.77;;
51664;SDS011;37751;52.408;12.536;2022-10-31T02:41:26;23.50;;;11.70;;
51664;SDS011;37751;52.408;12.536;2022-10-31T02:44:22;28.83;;;11.82;;
51664;SDS011;37751;52.408;12.536;2022-10-31T02:47:19;24.27;;;11.30;;
51664;SDS011;37751;52.408;12.536;2022-10-31T02:52:52;26.67;;;12.60;;
51664;SDS011;37751;52.408;12.536;2022-10-31T02:57:48;23.63;;;12.75;;
51664;SDS011;37751;52.408;12.536;2022-10-31T03:00:17;27.30;;;11.85;;
51664;SDS011;37751;52.408;12.536;2022-10-31T03:02:47;21.15;;;10.77;;
51664;SDS011;37751;52.408;12.536;2022-10-31T03:05:28;21.50;;;11.45;;
51664;SDS011;37751;52.408;12.536;2022-10-31T03:11:08;28.23;;;12.60;;
51664;SDS011;37751;52.408;12.536;2022-10-31T03:13:45;21.67;;;10.68;;
51664;SDS011;37751;52.408;12.536;2022-10-31T03:16:17;16.38;;;10.70;;
51664;SDS011;37751;52.408;12.536;2022-10-31T03:18:59;22.83;;;10.68;;
51664;SDS011;37751;52.408;12.536;2022-10-31T03:21:44;21.80;;;10.88;;
51664;SDS011;37751;52.408;12.536;2022-10-31T03:24:22;25.23;;;10.90;;
51664;SDS011;37751;52.408;12.536;2022-10-31T03:26:55;27.90;;;12.95;;
51664;SDS011;37751;52.408;12.536;2022-10-31T03:29:26;29.10;;;13.63;;
51664;SDS011;37751;52.408;12.536;2022-10-31T03:32:02;33.78;;;14.65;;
51664;SDS011;37751;52.408;12.536;2022-10-31T03:34:36;24.30;;;13.82;;
51664;SDS011;37751;52.408;12.536;2022-10-31T03:37:06;24.38;;;12.27;;
51664;SDS011;37751;52.408;12.536;2022-10-31T03:39:36;25.88;;;11.23;;
51664;SDS011;37751;52.408;12.536;2022-10-31T03:42:11;26.90;;;10.25;;
51664;SDS011;37751;52.408;12.536;2022-10-31T03:44:47;26.98;;;9.10;;
51664;SDS011;37751;52.408;12.536;2022-10-31T03:47:23;22.67;;;10.25;;
51664;SDS011;37751;52.408;12.536;2022-10-31T03:49:50;31.77;;;11.27;;
51664;SDS011;37751;52.408;12.536;2022-10-31T03:52:37;24.98;;;9.73;;
51664;SDS011;37751;52.408;12.536;2022-10-31T03:55:19;23.33;;;10.73;;
51664;SDS011;37751;52.408;12.536;2022-10-31T03:57:59;21.17;;;10.43;;
51664;SDS011;37751;52.408;12.536;2022-10-31T04:00:30;23.98;;;9.55;;
51664;SDS011;37751;52.408;12.536;2022-10-31T04:03:03;26.40;;;10.90;;
51664;SDS011;37751;52.408;12.536;2022-10-31T04:05:36;23.95;;;9.90;;
51664;SDS011;37751;52.408;12.536;2022-10-31T04:08:05;25.75;;;10.88;;
51664;SDS011;37751;52.408;12.536;2022-10-31T04:10:39;23.23;;;11.18;;
51664;SDS011;37751;52.408;12.536;2022-10-31T04:13:09;27.00;;;10.40;;
51664;SDS011;37751;52.408;12.536;2022-10-31T04:15:40;16.33;;;9.43;;
51664;SDS011;37751;52.408;12.536;2022-10-31T04:18:09;23.40;;;9.98;;
51664;SDS011;37751;52.408;12.536;2022-10-31T04:20:37;18.23;;;9.70;;
51664;SDS011;37751;52.408;12.536;2022-10-31T04:23:13;32.05;;;10.52;;
51664;SDS011;37751;52.408;12.536;2022-10-31T04:25:50;21.35;;;10.45;;
51664;SDS011;37751;52.408;12.536;2022-10-31T04:28:16;21.80;;;10.40;;
51664;SDS011;37751;52.408;12.536;2022-10-31T04:30:49;18.33;;;10.00;;
51664;SDS011;37751;52.408;12.536;2022-10-31T04:33:15;19.80;;;9.40;;
51664;SDS011;37751;52.408;12.536;2022-10-31T04:35:42;23.60;;;10.57;;
51664;SDS011;37751;52.408;12.536;2022-10-31T04:38:09;24.40;;;11.10;;
51664;SDS011;37751;52.408;12.536;2022-10-31T04:40:36;24.42;;;10.80;;
51664;SDS011;37751;52.408;12.536;2022-10-31T04:43:02;27.77;;;10.23;;
51664;SDS011;37751;52.408;12.536;2022-10-31T04:45:30;29.05;;;11.23;;
51664;SDS011;37751;52.408;12.536;2022-10-31T04:47:56;25.00;;;11.85;;
51664;SDS011;37751;52.408;12.536;2022-10-31T04:50:23;25.23;;;10.30;;
51664;SDS011;37751;52.408;12.536;2022-10-31T04:52:50;22.75;;;10.40;;
51664;SDS011;37751;52.408;12.536;2022-10-31T04:55:16;27.30;;;11.05;;
51664;SDS011;37751;52.408;12.536;2022-10-31T04:57:47;24.75;;;10.93;;
51664;SDS011;37751;52.408;12.536;2022-10-31T05:00:17;24.48;;;11.63;;
51664;SDS011;37751;52.408;12.536;2022-10-31T05:02:46;33.92;;;10.93;;
51664;SDS011;37751;52.408;12.536;2022-10-31T05:05:15;27.80;;;10.82;;
51664;SDS011;37751;52.408;12.536;2022-10-31T05:07:45;24.40;;;11.02;;
51664;SDS011;37751;52.408;12.536;2022-10-31T05:10:14;27.23;;;12.15;;
51664;SDS011;37751;52.408;12.536;2022-10-31T05:12:48;23.95;;;12.00;;
51664;SDS011;37751;52.408;12.536;2022-10-31T05:15:17;26.33;;;11.75;;
51664;SDS011;37751;52.408;12.536;2022-10-31T05:17:45;25.08;;;12.10;;
51664;SDS011;37751;52.408;12.536;2022-10-31T05:20:12;27.52;;;12.70;;
51664;SDS011;37751;52.408;12.536;2022-10-31T05:22:42;32.58;;;12.15;;
51664;SDS011;37751;52.408;12.536;2022-10-31T05:25:10;30.55;;;11.82;;
51664;SDS011;37751;52.408;12.536;2022-10-31T05:27:41;28.23;;;12.63;;
51664;SDS011;37751;52.408;12.536;2022-10-31T05:30:10;23.73;;;12.13;;
51664;SDS011;37751;52.408;12.536;2022-10-31T05:32:39;33.35;;;13.02;;
51664;SDS011;37751;52.408;12.536;2022-10-31T05:35:12;24.30;;;12.65;;
51664;SDS011;37751;52.408;12.536;2022-10-31T05:37:41;26.83;;;12.95;;
51664;SDS011;37751;52.408;12.536;2022-10-31T05:40:09;34.47;;;13.98;;
51664;SDS011;37751;52.408;12.536;2022-10-31T05:42:38;32.35;;;13.93;;
51664;SDS011;37751;52.408;12.536;2022-10-31T05:45:10;33.05;;;14.30;;
51664;SDS011;37751;52.408;12.536;2022-10-31T05:47:40;36.42;;;14.70;;
51664;SDS011;37751;52.408;12.536;2022-10-31T05:50:07;33.00;;;14.65;;
51664;SDS011;37751;52.408;12.536;2022-10-31T05:52:35;37.17;;;16.13;;
51664;SDS011;37751;52.408;12.536;2022-10-31T05:55:02;37.47;;;16.33;;
51664;SDS011;37751;52.408;12.536;2022-10-31T05:57:29;38.70;;;17.40;;
51664;SDS011;37751;52.408;12.536;2022-10-31T05:59:57;37.42;;;16.45;;
51664;SDS011;37751;52.408;12.536;2022-10-31T06:02:24;35.17;;;16.73;;
51664;SDS011;37751;52.408;12.536;2022-10-31T06:04:51;38.83;;;18.73;;
51664;SDS011;37751;52.408;12.536;2022-10-31T06:07:17;44.70;;;19.13;;
51664;SDS011;37751;52.408;12.536;2022-10-31T06:09:44;38.83;;;19.67;;
51664;SDS011;37751;52.408;12.536;2022-10-31T06:12:11;31.73;;;14.80;;
51664;SDS011;37751;52.408;12.536;2022-10-31T06:14:37;28.50;;;16.10;;
51664;SDS011;37751;52.408;12.536;2022-10-31T06:17:04;31.63;;;16.48;;
51664;SDS011;37751;52.408;12.536;2022-10-31T06:19:30;36.55;;;15.75;;
51664;SDS011;37751;52.408;12.536;2022-10-31T06:21:57;35.72;;;15.30;;
51664;SDS011;37751;52.408;12.536;2022-10-31T06:24:23;36.92;;;17.40;;
51664;SDS011;37751;52.408;12.536;2022-10-31T06:26:50;41.97;;;15.35;;
51664;SDS011;37751;52.408;12.536;2022-10-31T06:29:16;33.10;;;15.68;;
51664;SDS011;37751;52.408;12.536;2022-10-31T06:31:43;28.88;;;15.20;;
51664;SDS011;37751;52.408;12.536;2022-10-31T06:34:10;31.60;;;15.32;;
51664;SDS011;37751;52.408;12.536;2022-10-31T06:36:36;30.40;;;14.25;;
51664;SDS011;37751;52.408;12.536;2022-10-31T06:39:03;29.33;;;15.68;;
51664;SDS011;37751;52.408;12.536;2022-10-31T06:41:29;32.25;;;16.15;;
51664;SDS011;37751;52.408;12.536;2022-10-31T06:43:56;32.40;;;16.10;;
51664;SDS011;37751;52.408;12.536;2022-10-31T06:46:22;36.95;;;16.83;;
51664;SDS011;37751;52.408;12.536;2022-10-31T06:48:49;30.90;;;15.27;;
51664;SDS011;37751;52.408;12.536;2022-10-31T06:51:15;27.90;;;14.65;;
51664;SDS011;37751;52.408;12.536;2022-10-31T06:53:42;33.00;;;16.02;;
51664;SDS011;37751;52.408;12.536;2022-10-31T06:56:09;35.28;;;15.13;;
51664;SDS011;37751;52.408;12.536;2022-10-31T06:58:35;34.15;;;16.13;;
51664;SDS011;37751;52.408;12.536;2022-10-31T07:01:02;37.38;;;15.98;;
51664;SDS011;37751;52.408;12.536;2022-10-31T07:03:29;31.05;;;15.80;;
51664;SDS011;37751;52.408;12.536;2022-10-31T07:05:56;40.35;;;17.30;;
51664;SDS011;37751;52.408;12.536;2022-10-31T07:08:23;36.40;;;16.30;;
51664;SDS011;37751;52.408;12.536;2022-10-31T07:10:51;41.40;;;17.48;;
51664;SDS011;37751;52.408;12.536;2022-10-31T07:13:23;40.10;;;17.02;;
51664;SDS011;37751;52.408;12.536;2022-10-31T07:15:54;33.50;;;15.90;;
51664;SDS011;37751;52.408;12.536;2022-10-31T07:18:26;33.03;;;16.08;;
51664;SDS011;37751;52.408;12.536;2022-10-31T07:20:54;33.60;;;15.73;;
51664;SDS011;37751;52.408;12.536;2022-10-31T07:23:20;33.42;;;16.08;;
51664;SDS011;37751;52.408;12.536;2022-10-31T07:25:48;38.15;;;15.55;;
51664;SDS011;37751;52.408;12.536;2022-10-31T07:28:14;37.72;;;16.98;;
51664;SDS011;37751;52.408;12.536;2022-10-31T07:30:41;38.95;;;17.13;;
51664;SDS011;37751;52.408;12.536;2022-10-31T07:33:07;39.80;;;17.10;;
51664;SDS011;37751;52.408;12.536;2022-10-31T07:35:34;40.85;;;18.05;;
51664;SDS011;37751;52.408;12.536;2022-10-31T07:38:10;31.17;;;17.23;;
51664;SDS011;37751;52.408;12.536;2022-10-31T07:40:39;40.65;;;18.80;;
51664;SDS011;37751;52.408;12.536;2022-10-31T07:43:06;42.17;;;18.90;;
51664;SDS011;37751;52.408;12.536;2022-10-31T07:45:39;35.03;;;18.20;;
51664;SDS011;37751;52.408;12.536;2022-10-31T07:48:06;36.10;;;18.77;;
51664;SDS011;37751;52.408;12.536;2022-10-31T07:50:32;39.53;;;19.23;;
51664;SDS011;37751;52.408;12.536;2022-10-31T07:53:00;35.72;;;17.90;;
51664;SDS011;37751;52.408;12.536;2022-10-31T07:55:33;37.88;;;18.17;;
51664;SDS011;37751;52.408;12.536;2022-10-31T07:58:07;41.30;;;18.90;;
51664;SDS011;37751;52.408;12.536;2022-10-31T08:00:39;37.33;;;18.63;;
51664;SDS011;37751;52.408;12.536;2022-10-31T08:03:12;37.35;;;18.73;;
51664;SDS011;37751;52.408;12.536;2022-10-31T08:05:41;36.15;;;18.42;;
51664;SDS011;37751;52.408;12.536;2022-10-31T08:08:11;37.35;;;19.15;;
51664;SDS011;37751;52.408;12.536;2022-10-31T08:10:38;43.13;;;19.23;;
51664;SDS011;37751;52.408;12.536;2022-10-31T08:13:07;43.47;;;21.42;;
51664;SDS011;37751;52.408;12.536;2022-10-31T08:15:36;52.90;;;21.33;;
51664;SDS011;37751;52.408;12.536;2022-10-31T08:18:06;49.95;;;22.08;;
51664;SDS011;37751;52.408;12.536;2022-10-31T08:20:37;66.97;;;24.02;;
51664;SDS011;37751;52.408;12.536;2022-10-31T08:23:04;68.68;;;26.75;;
51664;SDS011;37751;52.408;12.536;2022-10-31T08:25:33;69.90;;;25.80;;
51664;SDS011;37751;52.408;12.536;2022-10-31T08:28:04;67.70;;;25.15;;
51664;SDS011;37751;52.408;12.536;2022-10-31T08:30:33;72.82;;;25.80;;
51664;SDS011;37751;52.408;12.536;2022-10-31T08:33:03;73.28;;;27.42;;
51664;SDS011;37751;52.408;12.536;2022-10-31T08:35:38;92.35;;;32.40;;
51664;SDS011;37751;52.408;12.536;2022-10-31T08:38:05;92.60;;;31.27;;
51664;SDS011;37751;52.408;12.536;2022-10-31T08:40:33;95.50;;;31.35;;
51664;SDS011;37751;52.408;12.536;2022-10-31T08:43:02;88.03;;;33.30;;
51664;SDS011;37751;52.408;12.536;2022-10-31T08:45:32;85.63;;;34.28;;
51664;SDS011;37751;52.408;12.536;2022-10-31T08:48:01;90.05;;;31.83;;
51664;SDS011;37751;52.408;12.536;2022-10-31T08:50:32;106.25;;;33.83;;
51664;SDS011;37751;52.408;12.536;2022-10-31T08:53:10;89.95;;;34.63;;
51664;SDS011;37751;52.408;12.536;2022-10-31T08:55:40;102.22;;;37.20;;
51664;SDS011;37751;52.408;12.536;2022-10-31T08:58:12;100.55;;;35.97;;
51664;SDS011;37751;52.408;12.536;2022-10-31T09:00:42;119.72;;;37.53;;
51664;SDS011;37751;52.408;12.536;2022-10-31T09:03:12;100.40;;;38.75;;
51664;SDS011;37751;52.408;12.536;2022-10-31T09:05:42;108.18;;;37.13;;
51664;SDS011;37751;52.408;12.536;2022-10-31T09:08:10;89.82;;;35.45;;
51664;SDS011;37751;52.408;12.536;2022-10-31T09:10:41;111.55;;;36.28;;
51664;SDS011;37751;52.408;12.536;2022-10-31T09:13:10;96.45;;;36.85;;
51664;SDS011;37751;52.408;12.536;2022-10-31T09:15:40;106.05;;;37.72;;
51664;SDS011;37751;52.408;12.536;2022-10-31T09:18:10;101.82;;;36.38;;
51664;SDS011;37751;52.408;12.536;2022-10-31T09:20:38;132.05;;;37.25;;
51664;SDS011;37751;52.408;12.536;2022-10-31T09:23:10;117.30;;;39.90;;
51664;SDS011;37751;52.408;12.536;2022-10-31T09:25:39;125.53;;;38.13;;
51664;SDS011;37751;52.408;12.536;2022-10-31T09:28:15;101.50;;;37.53;;
51664;SDS011;37751;52.408;12.536;2022-10-31T09:30:45;102.00;;;38.95;;
51664;SDS011;37751;52.408;12.536;2022-10-31T09:33:14;117.85;;;37.38;;
51664;SDS011;37751;52.408;12.536;2022-10-31T09:35:41;122.88;;;35.72;;
51664;SDS011;37751;52.408;12.536;2022-10-31T09:38:11;112.22;;;36.90;;
51664;SDS011;37751;52.408;12.536;2022-10-31T09:40:41;97.90;;;36.50;;
51664;SDS011;37751;52.408;12.536;2022-10-31T09:43:15;94.78;;;34.30;;
51664;SDS011;37751;52.408;12.536;2022-10-31T09:45:52;81.88;;;34.05;;
51664;SDS011;37751;52.408;12.536;2022-10-31T09:52:12;97.60;;;34.65;;
51664;SDS011;37751;52.408;12.536;2022-10-31T09:54:54;96.18;;;35.03;;
51664;SDS011;37751;52.408;12.536;2022-10-31T09:57:33;91.53;;;36.70;;
51664;SDS011;37751;52.408;12.536;2022-10-31T10:00:05;94.82;;;36.10;;
51664;SDS011;37751;52.408;12.536;2022-10-31T10:02:43;194.52;;;38.03;;
51664;SDS011;37751;52.408;12.536;2022-10-31T10:06:08;92.82;;;36.75;;
51664;SDS011;37751;52.408;12.536;2022-10-31T10:08:27;90.25;;;36.03;;
51664;SDS011;37751;52.408;12.536;2022-10-31T10:17:31;95.25;;;37.22;;
51664;SDS011;37751;52.408;12.536;2022-10-31T10:23:13;128.07;;;39.92;;
51664;SDS011;37751;52.408;12.536;2022-10-31T10:26:02;103.20;;;39.13;;
51664;SDS011;37751;52.408;12.536;2022-10-31T10:28:54;82.22;;;36.22;;
51664;SDS011;37751;52.408;12.536;2022-10-31T10:31:33;94.28;;;39.85;;
51664;SDS011;37751;52.408;12.536;2022-10-31T10:36:54;87.28;;;36.30;;
51664;SDS011;37751;52.408;12.536;2022-10-31T10:39:50;101.13;;;41.00;;
51664;SDS011;37751;52.408;12.536;2022-10-31T10:42:22;97.32;;;40.03;;
51664;SDS011;37751;52.408;12.536;2022-10-31T10:45:18;100.43;;;41.00;;
51664;SDS011;37751;52.408;12.536;2022-10-31T10:51:06;82.18;;;34.33;;
51664;SDS011;37751;52.408;12.536;2022-10-31T10:54:13;84.60;;;35.42;;
51664;SDS011;37751;52.408;12.536;2022-10-31T11:00:15;86.18;;;37.42;;
51664;SDS011;37751;52.408;12.536;2022-10-31T11:02:47;89.82;;;39.47;;
51664;SDS011;37751;52.408;12.536;2022-10-31T11:05:18;104.05;;;38.92;;
51664;SDS011;37751;52.408;12.536;2022-10-31T11:07:54;160.32;;;37.53;;
51664;SDS011;37751;52.408;12.536;2022-10-31T11:10:21;110.70;;;38.22;;
51664;SDS011;37751;52.408;12.536;2022-10-31T11:13:17;100.20;;;38.60;;
51664;SDS011;37751;52.408;12.536;2022-10-31T11:15:50;94.57;;;41.15;;
51664;SDS011;37751;52.408;12.536;2022-10-31T11:18:32;100.50;;;41.97;;
51664;SDS011;37751;52.408;12.536;2022-10-31T11:21:03;107.28;;;41.08;;
51664;SDS011;37751;52.408;12.536;2022-10-31T11:23:31;178.18;;;41.78;;
51664;SDS011;37751;52.408;12.536;2022-10-31T11:26:00;108.63;;;40.55;;
51664;SDS011;37751;52.408;12.536;2022-10-31T11:28:30;127.30;;;43.88;;
51664;SDS011;37751;52.408;12.536;2022-10-31T11:31:01;120.80;;;45.78;;
51664;SDS011;37751;52.408;12.536;2022-10-31T11:33:35;137.38;;;40.72;;
51664;SDS011;37751;52.408;12.536;2022-10-31T11:36:22;179.48;;;41.70;;
51664;SDS011;37751;52.408;12.536;2022-10-31T11:39:02;197.75;;;41.15;;
51664;SDS011;37751;52.408;12.536;2022-10-31T11:41:32;286.05;;;41.10;;
51664;SDS011;37751;52.408;12.536;2022-10-31T11:44:03;128.20;;;41.17;;
51664;SDS011;37751;52.408;12.536;2022-10-31T11:46:50;106.43;;;43.25;;
51664;SDS011;37751;52.408;12.536;2022-10-31T11:49:27;104.03;;;45.20;;
51664;SDS011;37751;52.408;12.536;2022-10-31T11:52:06;79.75;;;39.72;;
51664;SDS011;37751;52.408;12.536;2022-10-31T11:54:42;78.07;;;37.65;;
51664;SDS011;37751;52.408;12.536;2022-10-31T11:57:26;88.22;;;39.38;;
51664;SDS011;37751;52.408;12.536;2022-10-31T11:59:56;75.50;;;35.20;;
51664;SDS011;37751;52.408;12.536;2022-10-31T12:02:26;82.95;;;38.78;;
51664;SDS011;37751;52.408;12.536;2022-10-31T12:05:02;84.47;;;36.85;;
51664;SDS011;37751;52.408;12.536;2022-10-31T12:07:37;76.85;;;36.50;;
51664;SDS011;37751;52.408;12.536;2022-10-31T12:10:10;72.38;;;35.42;;
51664;SDS011;37751;52.408;12.536;2022-10-31T12:15:25;81.03;;;35.80;;
51664;SDS011;37751;52.408;12.536;2022-10-31T12:24:07;71.68;;;35.97;;
51664;SDS011;37751;52.408;12.536;2022-10-31T12:29:52;85.43;;;40.05;;
51664;SDS011;37751;52.408;12.536;2022-10-31T12:41:51;90.55;;;38.65;;
51664;SDS011;37751;52.408;12.536;2022-10-31T12:44:39;75.22;;;34.35;;
51664;SDS011;37751;52.408;12.536;2022-10-31T12:53:34;79.28;;;34.42;;
51664;SDS011;37751;52.408;12.536;2022-10-31T12:56:52;70.45;;;35.45;;
51664;SDS011;37751;52.408;12.536;2022-10-31T12:59:38;74.45;;;35.45;;
51664;SDS011;37751;52.408;12.536;2022-10-31T13:02:27;74.43;;;34.33;;
51664;SDS011;37751;52.408;12.536;2022-10-31T13:05:15;209.43;;;34.08;;
51664;SDS011;37751;52.408;12.536;2022-10-31T13:08:20;97.70;;;33.78;;
51664;SDS011;37751;52.408;12.536;2022-10-31T13:11:02;89.63;;;35.70;;
51664;SDS011;37751;52.408;12.536;2022-10-31T13:13:40;77.15;;;37.35;;
51664;SDS011;37751;52.408;12.536;2022-10-31T13:16:13;79.22;;;33.22;;
51664;SDS011;37751;52.408;12.536;2022-10-31T13:18:46;72.50;;;30.45;;
51664;SDS011;37751;52.408;12.536;2022-10-31T13:21:25;59.75;;;30.70;;
51664;SDS011;37751;52.408;12.536;2022-10-31T13:24:00;70.68;;;31.90;;
51664;SDS011;37751;52.408;12.536;2022-10-31T13:26:38;89.07;;;33.20;;
51664;SDS011;37751;52.408;12.536;2022-10-31T13:29:19;65.75;;;31.73;;
51664;SDS011;37751;52.408;12.536;2022-10-31T13:31:57;78.72;;;34.67;;
51664;SDS011;37751;52.408;12.536;2022-10-31T13:34:27;94.10;;;34.30;;
51664;SDS011;37751;52.408;12.536;2022-10-31T13:37:15;82.00;;;33.95;;
51664;SDS011;37751;52.408;12.536;2022-10-31T13:40:02;81.55;;;32.15;;
51664;SDS011;37751;52.408;12.536;2022-10-31T13:45:29;70.80;;;33.85;;
51664;SDS011;37751;52.408;12.536;2022-10-31T13:47:56;68.80;;;31.02;;
51664;SDS011;37751;52.408;12.536;2022-10-31T13:50:57;72.15;;;31.42;;
51664;SDS011;37751;52.408;12.536;2022-10-31T13:53:41;105.60;;;34.92;;
51664;SDS011;37751;52.408;12.536;2022-10-31T13:56:23;169.27;;;36.45;;
51664;SDS011;37751;52.408;12.536;2022-10-31T13:59:02;82.05;;;35.67;;
51664;SDS011;37751;52.408;12.536;2022-10-31T14:01:53;93.78;;;37.65;;
51664;SDS011;37751;52.408;12.536;2022-10-31T14:04:25;83.30;;;36.08;;
51664;SDS011;37751;52.408;12.536;2022-10-31T14:07:16;90.90;;;35.10;;
51664;SDS011;37751;52.408;12.536;2022-10-31T14:15:26;109.60;;;37.65;;
51664;SDS011;37751;52.408;12.536;2022-10-31T14:17:58;87.70;;;38.53;;
51664;SDS011;37751;52.408;12.536;2022-10-31T14:20:33;87.20;;;37.53;;
51664;SDS011;37751;52.408;12.536;2022-10-31T14:28:47;106.82;;;35.20;;
51664;SDS011;37751;52.408;12.536;2022-10-31T14:31:35;192.82;;;37.70;;
51664;SDS011;37751;52.408;12.536;2022-10-31T14:36:48;106.05;;;37.75;;
51664;SDS011;37751;52.408;12.536;2022-10-31T14:45:14;80.72;;;35.20;;
51664;SDS011;37751;52.408;12.536;2022-10-31T14:48:20;117.22;;;34.20;;
51664;SDS011;37751;52.408;12.536;2022-10-31T14:51:21;115.03;;;32.88;;
51664;SDS011;37751;52.408;12.536;2022-10-31T14:53:51;81.60;;;32.33;;
51664;SDS011;37751;52.408;12.536;2022-10-31T14:56:25;96.45;;;33.45;;
51664;SDS011;37751;52.408;12.536;2022-10-31T14:58:56;168.68;;;32.95;;
51664;SDS011;37751;52.408;12.536;2022-10-31T15:01:28;282.83;;;35.92;;
51664;SDS011;37751;52.408;12.536;2022-10-31T15:04:04;91.00;;;34.83;;
51664;SDS011;37751;52.408;12.536;2022-10-31T15:09:55;170.00;;;32.97;;
51664;SDS011;37751;52.408;12.536;2022-10-31T15:12:33;103.63;;;32.78;;
51664;SDS011;37751;52.408;12.536;2022-10-31T15:15:23;78.80;;;32.95;;
51664;SDS011;37751;52.408;12.536;2022-10-31T15:17:53;82.97;;;33.58;;
51664;SDS011;37751;52.408;12.536;2022-10-31T15:20:27;93.60;;;36.90;;
51664;SDS011;37751;52.408;12.536;2022-10-31T15:22:57;87.80;;;32.88;;
51664;SDS011;37751;52.408;12.536;2022-10-31T15:25:25;128.18;;;33.50;;
51664;SDS011;37751;52.408;12.536;2022-10-31T15:27:58;122.53;;;34.22;;
51664;SDS011;37751;52.408;12.536;2022-10-31T15:30:26;83.43;;;31.00;;
51664;SDS011;37751;52.408;12.536;2022-10-31T15:32:55;83.43;;;32.10;;
51664;SDS011;37751;52.408;12.536;2022-10-31T15:37:56;160.60;;;34.55;;
51664;SDS011;37751;52.408;12.536;2022-10-31T15:40:25;173.60;;;36.42;;
51664;SDS011;37751;52.408;12.536;2022-10-31T15:45:26;130.80;;;39.25;;
51664;SDS011;37751;52.408;12.536;2022-10-31T15:47:58;135.77;;;39.15;;
51664;SDS011;37751;52.408;12.536;2022-10-31T15:53:01;242.50;;;41.42;;
51664;SDS011;37751;52.408;12.536;2022-10-31T15:55:33;207.55;;;40.42;;
51664;SDS011;37751;52.408;12.536;2022-10-31T15:58:11;232.65;;;42.03;;
51664;SDS011;37751;52.408;12.536;2022-10-31T16:00:40;125.85;;;38.97;;
51664;SDS011;37751;52.408;12.536;2022-10-31T16:05:47;156.35;;;33.28;;
51664;SDS011;37751;52.408;12.536;2022-10-31T16:13:34;93.32;;;29.90;;
51664;SDS011;37751;52.408;12.536;2022-10-31T16:16:10;81.18;;;30.30;;
51664;SDS011;37751;52.408;12.536;2022-10-31T16:19:00;83.03;;;30.33;;
51664;SDS011;37751;52.408;12.536;2022-10-31T16:21:33;122.38;;;29.75;;
51664;SDS011;37751;52.408;12.536;2022-10-31T16:24:26;86.80;;;30.42;;
51664;SDS011;37751;52.408;12.536;2022-10-31T16:27:01;113.97;;;31.05;;
51664;SDS011;37751;52.408;12.536;2022-10-31T16:29:39;70.97;;;31.50;;
51664;SDS011;37751;52.408;12.536;2022-10-31T16:32:23;121.57;;;34.17;;
51664;SDS011;37751;52.408;12.536;2022-10-31T16:37:38;65.38;;;30.80;;
51664;SDS011;37751;52.408;12.536;2022-10-31T16:40:15;79.75;;;30.35;;